sensor_id;sensor_type;location;lat;lon;timestamp;P1;durP1;ratioP1;P2;durP2;ratioP2
61895;SDS011;47835;52.778;5.956;2022-11-15T21:28:07;4.05;;;2.50;;
61895;SDS011;47835;52.778;5.956;2022-11-15T21:30:33;7.88;;;3.53;;
61895;SDS011;47835;52.778;5.956;2022-11-15T21:32:58;5.30;;;3.40;;
61895;SDS011;47835;52.778;5.956;2022-11-15T21:35:24;7.72;;;3.30;;
61895;SDS011;47835;52.778;5.956;2022-11-15T21:37:49;7.85;;;3.97;;
61895;SDS011;47835;52.778;5.956;2022-11-15T21:40:15;6.50;;;3.88;;
61895;SDS011;47835;52.778;5.956;2022-11-15T21:42:40;5.32;;;3.63;;
61895;SDS011;47835;52.778;5.956;2022-11-15T21:45:06;6.60;;;4.03;;
61895;SDS011;47835;52.778;5.956;2022-11-15T21:47:32;8.70;;;3.55;;
61895;SDS011;47835;52.778;5.956;2022-11-15T21:49:57;7.40;;;4.35;;
61895;SDS011;47835;52.778;5.956;2022-11-15T21:52:23;5.63;;;3.65;;
61895;SDS011;47835;52.778;5.956;2022-11-15T21:54:48;6.93;;;3.97;;
61895;SDS011;47835;52.778;5.956;2022-11-15T21:57:14;6.47;;;4.00;;
61895;SDS011;47835;52.778;5.956;2022-11-15T21:59:39;5.45;;;4.03;;
61895;SDS011;47835;52.778;5.956;2022-11-15T22:02:25;6.78;;;3.40;;
61895;SDS011;47835;52.778;5.956;2022-11-15T22:04:51;6.50;;;4.05;;
61895;SDS011;47835;52.778;5.956;2022-11-15T22:07:16;6.60;;;4.05;;
61895;SDS011;47835;52.778;5.956;2022-11-15T22:09:42;6.25;;;3.92;;
61895;SDS011;47835;52.778;5.956;2022-11-15T22:12:07;9.43;;;4.60;;
61895;SDS011;47835;52.778;5.956;2022-11-15T22:14:33;7.93;;;4.97;;
61895;SDS011;47835;52.778;5.956;2022-11-15T22:16:58;8.75;;;4.45;;
61895;SDS011;47835;52.778;5.956;2022-11-15T22:19:24;7.20;;;4.28;;
61895;SDS011;47835;52.778;5.956;2022-11-15T22:21:49;9.73;;;3.95;;
61895;SDS011;47835;52.778;5.956;2022-11-15T22:24:15;6.93;;;3.90;;
61895;SDS011;47835;52.778;5.956;2022-11-15T22:26:40;6.35;;;3.80;;
61895;SDS011;47835;52.778;5.956;2022-11-15T22:29:06;7.43;;;3.92;;
61895;SDS011;47835;52.778;5.956;2022-11-15T22:31:31;7.43;;;4.07;;
61895;SDS011;47835;52.778;5.956;2022-11-15T22:33:57;7.03;;;4.38;;
61895;SDS011;47835;52.778;5.956;2022-11-15T22:36:22;7.28;;;4.00;;
61895;SDS011;47835;52.778;5.956;2022-11-15T22:38:48;6.25;;;3.80;;
61895;SDS011;47835;52.778;5.956;2022-11-15T22:41:13;5.95;;;3.53;;
61895;SDS011;47835;52.778;5.956;2022-11-15T22:43:39;6.65;;;4.07;;
61895;SDS011;47835;52.778;5.956;2022-11-15T22:46:04;8.02;;;3.75;;
61895;SDS011;47835;52.778;5.956;2022-11-15T22:48:31;6.93;;;3.95;;
61895;SDS011;47835;52.778;5.956;2022-11-15T22:50:58;7.07;;;3.63;;
61895;SDS011;47835;52.778;5.956;2022-11-15T22:53:24;5.28;;;3.78;;
61895;SDS011;47835;52.778;5.956;2022-11-15T22:55:51;5.70;;;3.47;;
61895;SDS011;47835;52.778;5.956;2022-11-15T22:58:21;5.90;;;3.22;;
61895;SDS011;47835;52.778;5.956;2022-11-15T23:00:49;6.55;;;3.08;;
61895;SDS011;47835;52.778;5.956;2022-11-15T23:03:16;5.15;;;2.95;;
61895;SDS011;47835;52.778;5.956;2022-11-15T23:05:42;6.32;;;3.40;;
61895;SDS011;47835;52.778;5.956;2022-11-15T23:08:08;5.07;;;3.17;;
61895;SDS011;47835;52.778;5.956;2022-11-15T23:10:34;7.13;;;3.60;;
61895;SDS011;47835;52.778;5.956;2022-11-15T23:13:17;6.40;;;4.00;;
61895;SDS011;47835;52.778;5.956;2022-11-15T23:15:44;4.90;;;3.38;;
61895;SDS011;47835;52.778;5.956;2022-11-15T23:18:35;5.50;;;3.13;;
61895;SDS011;47835;52.778;5.956;2022-11-15T23:21:10;5.75;;;3.45;;
61895;SDS011;47835;52.778;5.956;2022-11-15T23:23:37;6.15;;;3.10;;
61895;SDS011;47835;52.778;5.956;2022-11-15T23:26:03;5.80;;;3.47;;
61895;SDS011;47835;52.778;5.956;2022-11-15T23:28:28;6.22;;;3.55;;
61895;SDS011;47835;52.778;5.956;2022-11-15T23:31:00;5.00;;;2.72;;
61895;SDS011;47835;52.778;5.956;2022-11-15T23:33:45;5.30;;;3.33;;
61895;SDS011;47835;52.778;5.956;2022-11-15T23:36:27;5.93;;;3.05;;
61895;SDS011;47835;52.778;5.956;2022-11-15T23:38:53;6.00;;;3.15;;
61895;SDS011;47835;52.778;5.956;2022-11-15T23:41:19;5.15;;;2.90;;
61895;SDS011;47835;52.778;5.956;2022-11-15T23:43:45;5.75;;;3.50;;
61895;SDS011;47835;52.778;5.956;2022-11-15T23:46:11;5.43;;;3.00;;
61895;SDS011;47835;52.778;5.956;2022-11-15T23:48:37;5.93;;;2.90;;
61895;SDS011;47835;52.778;5.956;2022-11-15T23:51:02;5.78;;;3.30;;
61895;SDS011;47835;52.778;5.956;2022-11-15T23:53:28;6.15;;;3.22;;
61895;SDS011;47835;52.778;5.956;2022-11-15T23:56:01;5.75;;;3.10;;
61895;SDS011;47835;52.778;5.956;2022-11-15T23:58:29;6.43;;;3.08;;
